West Salem, Ohio
Current Conditions -  °F | °C
As of 4:56 AM on Tuesday 21 Oct 2014 (Local Time) from KBJJ Reporting Station
Haze Haze  
Wind Chill: 52°   Ceiling: 7500
Heat Index: 52°   Visibility: 4mi
Dew Point: 49°   Wind: 8mph
Humidity: 89%   Direction: 280°W
Pressure: 29.86"   Gusts: NA
Location:  40.97°N, 82.11°W
Report Text: KBJJ 210856Z AUTO 28007KT 4SM BR SCT014 SCT024 OVC075 11/09 A2986 RMK AO2 SLP110 T01110094 51003 TSNO
Loading
Personal Weather Stations






























Interactive Weather Map
Tropical Storm Tracking
New forecast layout! Learn more

10-Day Weather Forecast

Advertisements
Track Severe Weather on mobile